This is the latest recevied weather packets stored in our database for station/object KQ4PPF. If no packets are shown the sender has not sent any weather packets the latest 10 day(s).
| Time | Temp. | Humidity | Pressure | Rain* | Wind** | Luminosity | Snow |
|---|---|---|---|---|---|---|---|
| 1777305628 | 21.67° C | 67% | 1019.2 hPa | 0 mm | - | 172 W/m² | - |
| 1777305324 | 21.67° C | 67% | 1019.3 hPa | 0 mm | - | 815 W/m² | - |
| 1777305024 | 21.67° C | 66% | 1019.5 hPa | 0 mm | - | 818 W/m² | - |
| 1777304724 | 21.11° C | 67% | 1019.2 hPa | 0 mm | - | 782 W/m² | - |
| 1777304421 | 21.11° C | 68% | 1019.2 hPa | 0 mm | - | 757 W/m² | - |
| 1777304119 | 21.11° C | 67% | 1019.4 hPa | 0 mm | - | 706 W/m² | - |
| 1777303815 | 20.56° C | 68% | 1019.5 hPa | 0 mm | - | 701 W/m² | - |
| 1777303513 | 21.11° C | 68% | 1019.5 hPa | 0 mm | - | 708 W/m² | - |
| 1777303210 | 21.11° C | 69% | 1019.3 hPa | 0 mm | - | 727 W/m² | - |
| 1777302909 | 21.11° C | 69% | 1019.4 hPa | 0 mm | - | 737 W/m² | - |
| 1777302604 | 21.11° C | 69% | 1019.5 hPa | 0 mm | - | 670 W/m² | - |
| 1777302303 | 21.11° C | 68% | 1019.7 hPa | 0 mm | - | 645 W/m² | - |
| 1777302001 | 20.56° C | 70% | 1019.6 hPa | 0 mm | - | 627 W/m² | - |
| 1777301699 | 21.11° C | 69% | 1019.4 hPa | 0 mm | - | 572 W/m² | - |
| 1777301395 | 20.56° C | 69% | 1019.5 hPa | 0 mm | - | 632 W/m² | - |
| 1777301091 | 21.11° C | 68% | 1019.3 hPa | 0 mm | - | 684 W/m² | - |
| 1777300789 | 20° C | 72% | 1019.1 hPa | 0 mm | - | 664 W/m² | - |
| 1777300487 | 20° C | 72% | 1018.9 hPa | 0 mm | - | 370 W/m² | - |
| 1777300184 | 19.44° C | 75% | 1018.9 hPa | 0 mm | - | 235 W/m² | - |
| 1777299880 | 19.44° C | 75% | 1019.3 hPa | 0 mm | - | 102 W/m² | - |
| 1777299578 | 18.89° C | 75% | 1019.5 hPa | 0 mm | - | 144 W/m² | - |
| 1777299276 | 19.44° C | 74% | 1019.4 hPa | 0 mm | - | 98 W/m² | - |
| 1777298972 | 19.44° C | 75% | 1019.5 hPa | 0 mm | - | 99 W/m² | - |
| 1777298670 | 18.89° C | 76% | 1019.5 hPa | 0 mm | - | 90 W/m² | - |
| 1777298366 | 18.89° C | 76% | 1019.4 hPa | 0 mm | - | 71 W/m² | - |
* Rain latest hour (hover to see other rain measurements)
** Current wind speed in m/s (hover to see current wind gust speed)